Terminal Aerodrome Forecast
Issued by NWS

Current Version | Previous Version | Text Only | Print | Product List | Glossary Off
Versions: 1 2 3 4 5 6 7 8 9 10 11 12 13 14 15 16 17 18 19 20 21 22

000
FTUS41 KRLX 012300
TAFCKB
TAF
KCKB 012330Z 0200/0224 21006KT 3SM -RA BR OVC008
     FM020800 27007KT 6SM -RASN BR SCT008 OVC015
     FM021000 27007KT P6SM OVC010
     FM021200 28006KT P6SM OVC015
     FM021400 28006KT P6SM BKN025
     FM021700 28006KT P6SM SCT025=

USA.gov is the U.S. government's official web portal to all federal, state and local government web resources and services.